Time;durP1;ratioP1;P1;durP2;ratioP2;P2;SDS_P1;SDS_P2;PMS_P1;PMS_P2;Temp;Humidity;BMP_temperature;BMP_pressure;BME280_temperature;BME280_humidity;BME280_pressure;Samples;Min_cycle;Max_cycle;Signal;HPM_P1;HPM_P2
2022/02/20 00:00:16;;;;;;;8.77;4.28;;;13.50;99.90;;;;;;4975031;28;20038;-59
2022/02/20 00:02:45;;;;;;;14.73;4.65;;;13.40;99.90;;;;;;4963516;28;20058;-59
2022/02/20 00:05:12;;;;;;;11.85;4.78;;;13.50;99.90;;;;;;4974026;28;20126;-59
2022/02/20 00:07:40;;;;;;;16.83;4.72;;;13.50;99.90;;;;;;4971457;28;20051;-60
2022/02/20 00:10:07;;;;;;;9.05;4.07;;;13.50;99.90;;;;;;4974092;28;20054;-59
2022/02/20 00:12:35;;;;;;;13.65;4.05;;;13.60;99.90;;;;;;4963279;28;20043;-60
2022/02/20 00:15:03;;;;;;;12.90;4.72;;;13.60;99.90;;;;;;4973094;28;20488;-59
2022/02/20 00:17:31;;;;;;;12.48;5.10;;;13.60;99.90;;;;;;4971700;28;20110;-60
2022/02/20 00:19:58;;;;;;;11.90;5.30;;;13.70;99.90;;;;;;4954907;28;20041;-59
2022/02/20 00:22:27;;;;;;;16.90;5.10;;;13.60;99.90;;;;;;4965951;28;20480;-59
2022/02/20 00:24:57;;;;;;;12.45;6.25;;;13.60;99.90;;;;;;4970886;28;20058;-59
2022/02/20 00:27:25;;;;;;;16.40;4.30;;;13.60;99.90;;;;;;4967829;28;20051;-59
2022/02/20 00:29:53;;;;;;;12.95;5.00;;;13.50;99.90;;;;;;4971277;28;20454;-59
2022/02/20 00:32:20;;;;;;;8.15;4.45;;;13.50;99.90;;;;;;4973299;28;20409;-60
2022/02/20 00:34:48;;;;;;;9.95;4.93;;;13.50;99.90;;;;;;4974170;28;20046;-59
2022/02/20 00:37:16;;;;;;;10.52;4.75;;;13.50;99.90;;;;;;4973528;28;20042;-59
2022/02/20 00:39:43;;;;;;;12.52;4.78;;;13.50;99.90;;;;;;4957620;28;20043;-59
2022/02/20 00:42:11;;;;;;;9.80;4.72;;;13.50;99.90;;;;;;4966201;28;20093;-59
2022/02/20 00:44:38;;;;;;;17.63;6.18;;;13.50;99.90;;;;;;4955388;28;20120;-59
2022/02/20 00:47:06;;;;;;;15.45;4.95;;;13.50;99.90;;;;;;4973319;28;20039;-59
2022/02/20 00:49:34;;;;;;;8.65;3.85;;;13.50;99.90;;;;;;4973719;28;20094;-59
2022/02/20 00:52:01;;;;;;;8.63;3.88;;;13.50;99.90;;;;;;4971408;28;20050;-59
2022/02/20 00:54:29;;;;;;;8.98;4.35;;;13.50;99.90;;;;;;4970418;28;20044;-59
2022/02/20 00:56:57;;;;;;;9.35;5.05;;;13.50;99.90;;;;;;4973615;28;20051;-59
2022/02/20 00:59:25;;;;;;;12.23;5.28;;;13.50;99.90;;;;;;4972140;28;20659;-59
2022/02/20 01:01:53;;;;;;;7.20;4.03;;;13.50;99.90;;;;;;4972325;28;20049;-60
2022/02/20 01:04:20;;;;;;;14.98;5.97;;;13.60;99.90;;;;;;4973447;28;20047;-59
2022/02/20 01:06:52;;;;;;;9.57;4.80;;;13.60;99.90;;;;;;4949055;28;20047;-60
2022/02/20 01:09:20;;;;;;;14.02;5.10;;;13.60;99.90;;;;;;4972443;28;20059;-59
2022/02/20 01:11:47;;;;;;;9.63;4.40;;;13.60;99.90;;;;;;4972328;28;20099;-59
2022/02/20 01:14:15;;;;;;;11.45;4.82;;;13.60;99.90;;;;;;4969668;28;20323;-59
2022/02/20 01:16:43;;;;;;;11.38;5.00;;;13.50;99.90;;;;;;4971926;28;20094;-60
2022/02/20 01:19:10;;;;;;;20.00;5.30;;;13.50;99.90;;;;;;4956731;28;20138;-59
2022/02/20 01:21:38;;;;;;;14.20;5.50;;;13.50;99.90;;;;;;4972403;28;20568;-60
2022/02/20 01:24:06;;;;;;;12.65;5.00;;;13.50;99.90;;;;;;4973177;28;20405;-59
2022/02/20 01:26:33;;;;;;;8.70;4.63;;;13.50;99.90;;;;;;4972316;28;20425;-59
2022/02/20 01:29:01;;;;;;;14.15;4.00;;;13.50;99.90;;;;;;4971425;28;20042;-59
2022/02/20 01:31:29;;;;;;;14.00;5.35;;;13.40;99.90;;;;;;4972510;28;20524;-59
2022/02/20 01:33:57;;;;;;;16.33;5.20;;;13.50;99.90;;;;;;4962453;28;20481;-59
2022/02/20 01:36:25;;;;;;;12.90;6.05;;;13.50;99.90;;;;;;4953275;28;20127;-59
2022/02/20 01:38:54;;;;;;;11.07;4.28;;;13.60;99.90;;;;;;4948197;28;20053;-59
2022/02/20 01:41:23;;;;;;;12.43;5.00;;;13.60;99.90;;;;;;4969778;28;20035;-59
2022/02/20 01:43:53;;;;;;;11.00;5.30;;;13.60;99.90;;;;;;4940158;28;20405;-59
2022/02/20 01:46:23;;;;;;;11.52;5.03;;;13.60;99.90;;;;;;4971869;28;20043;-59
2022/02/20 01:48:50;;;;;;;13.23;5.18;;;13.50;99.90;;;;;;4971726;28;20043;-59
2022/02/20 01:51:19;;;;;;;9.65;4.93;;;13.60;99.90;;;;;;4954620;28;20094;-59
2022/02/20 01:53:50;;;;;;;11.60;5.47;;;13.60;99.90;;;;;;4973909;28;20082;-59
2022/02/20 01:56:18;;;;;;;4.95;4.20;;;13.60;99.90;;;;;;4971618;28;20054;-59
2022/02/20 01:59:05;;;;;;;19.20;4.88;;;13.70;99.90;;;;;;4971082;28;20484;-59
2022/02/20 02:01:57;;;;;;;16.75;5.72;;;13.60;99.90;;;;;;4971705;28;20051;-59
2022/02/20 02:04:34;;;;;;;9.48;4.13;;;13.60;99.90;;;;;;4971602;28;20039;-60
2022/02/20 02:07:06;;;;;;;18.02;5.57;;;13.60;99.90;;;;;;4988418;28;20041;-59
2022/02/20 02:09:54;;;;;;;8.27;4.55;;;13.60;99.90;;;;;;4970379;28;20062;-60
2022/02/20 02:12:53;;;;;;;11.82;5.30;;;13.60;99.90;;;;;;4971996;28;20050;-59
2022/02/20 02:15:51;;;;;;;17.25;5.75;;;13.70;99.90;;;;;;4964866;28;20089;-59
2022/02/20 02:18:39;;;;;;;13.65;6.13;;;13.60;99.90;;;;;;4953759;29;20442;-59
2022/02/20 02:21:30;;;;;;;16.85;5.38;;;13.70;99.90;;;;;;4955351;28;20121;-59
2022/02/20 02:24:16;;;;;;;11.88;5.68;;;13.60;99.90;;;;;;4968257;28;20055;-59
2022/02/20 02:27:13;;;;;;;12.60;5.35;;;13.60;99.90;;;;;;4954596;28;20130;-59
2022/02/20 02:29:55;;;;;;;16.20;4.85;;;13.60;99.90;;;;;;4954531;29;20047;-59
2022/02/20 02:32:23;;;;;;;13.82;5.35;;;13.60;99.90;;;;;;4954318;28;20098;-59
2022/02/20 02:34:51;;;;;;;14.45;5.65;;;13.50;99.90;;;;;;4954259;29;20043;-59
2022/02/20 02:37:23;;;;;;;12.25;5.68;;;13.50;99.90;;;;;;4954372;29;20052;-59
2022/02/20 02:39:52;;;;;;;12.55;5.63;;;13.50;99.90;;;;;;4954315;29;20043;-59
2022/02/20 02:42:19;;;;;;;10.93;5.75;;;13.50;99.90;;;;;;4937712;28;20039;-60
2022/02/20 02:44:48;;;;;;;20.85;7.95;;;13.50;99.90;;;;;;4972989;28;20054;-59
2022/02/20 02:47:15;;;;;;;17.80;6.15;;;13.50;99.90;;;;;;4973455;28;20070;-59
2022/02/20 02:49:43;;;;;;;18.17;5.95;;;13.50;99.90;;;;;;4973439;28;20050;-59
2022/02/20 02:52:11;;;;;;;13.20;5.28;;;13.50;99.90;;;;;;4976360;28;20038;-59
2022/02/20 02:54:38;;;;;;;12.30;5.35;;;13.50;99.90;;;;;;4977186;28;20054;-59
2022/02/20 02:57:06;;;;;;;15.27;6.03;;;13.50;99.90;;;;;;4978314;28;20052;-59
2022/02/20 02:59:35;;;;;;;15.90;4.97;;;13.50;99.90;;;;;;4961455;28;20122;-59
2022/02/20 03:02:04;;;;;;;12.02;6.28;;;13.50;99.90;;;;;;4945448;28;20080;-59
2022/02/20 03:04:32;;;;;;;14.10;5.18;;;13.50;99.90;;;;;;4977314;28;20042;-59
2022/02/20 03:07:00;;;;;;;10.27;5.72;;;13.50;99.90;;;;;;4961237;28;20083;-59
2022/02/20 03:09:28;;;;;;;19.40;6.03;;;13.50;99.90;;;;;;4976823;28;20063;-59
2022/02/20 03:11:56;;;;;;;14.43;6.50;;;13.50;99.90;;;;;;4976910;28;20042;-59
2022/02/20 03:14:26;;;;;;;11.48;5.63;;;13.50;99.90;;;;;;4976902;28;20046;-59
2022/02/20 03:16:55;;;;;;;15.27;6.13;;;13.50;99.90;;;;;;4977899;28;20117;-59
2022/02/20 03:19:22;;;;;;;13.48;6.25;;;13.50;99.90;;;;;;4977926;28;20046;-59
2022/02/20 03:21:50;;;;;;;7.97;5.20;;;13.50;99.90;;;;;;4976794;28;20053;-59
2022/02/20 03:24:21;;;;;;;17.73;6.47;;;13.50;99.90;;;;;;4976599;28;20034;-59
2022/02/20 03:26:49;;;;;;;14.68;6.32;;;13.50;99.90;;;;;;4976802;28;20047;-59
2022/02/20 03:29:23;;;;;;;17.52;7.70;;;13.50;99.90;;;;;;4976673;28;20039;-59
2022/02/20 03:31:51;;;;;;;13.25;6.03;;;13.60;99.90;;;;;;4960740;28;20039;-59
2022/02/20 03:34:18;;;;;;;16.38;6.03;;;13.50;99.90;;;;;;4977648;28;20101;-59
2022/02/20 03:36:51;;;;;;;14.82;5.85;;;13.50;99.90;;;;;;4976528;28;20064;-59
2022/02/20 03:39:29;;;;;;;14.05;5.75;;;13.40;99.90;;;;;;4976446;28;20045;-59
2022/02/20 03:41:57;;;;;;;14.68;6.70;;;13.40;99.90;;;;;;4976505;28;20383;-59
2022/02/20 03:45:05;;;;;;;19.00;6.18;;;13.40;99.90;;;;;;4978835;28;20062;-59
2022/02/20 03:47:36;;;;;;;12.60;5.97;;;13.40;99.90;;;;;;4976317;28;20066;-59
2022/02/20 03:50:05;;;;;;;16.05;6.40;;;13.40;99.90;;;;;;4976271;28;20046;-59
2022/02/20 03:52:36;;;;;;;16.95;8.13;;;13.40;99.90;;;;;;4960125;28;20114;-59
2022/02/20 03:55:07;;;;;;;14.25;6.47;;;13.50;99.90;;;;;;4976496;28;20057;-59
2022/02/20 03:57:38;;;;;;;15.38;6.13;;;13.40;99.90;;;;;;4960731;28;20055;-59
2022/02/20 04:00:21;;;;;;;19.13;6.70;;;13.40;99.90;;;;;;4976291;28;20529;-59
2022/02/20 04:03:08;;;;;;;17.27;7.30;;;13.50;99.90;;;;;;4974956;28;20046;-59
2022/02/20 04:05:38;;;;;;;12.23;6.07;;;13.50;99.90;;;;;;4975965;28;20046;-59
2022/02/20 04:08:08;;;;;;;16.88;6.50;;;13.50;99.90;;;;;;4976129;28;20576;-59
2022/02/20 04:10:35;;;;;;;12.60;6.68;;;13.40;99.90;;;;;;4959848;28;20051;-59
2022/02/20 04:13:07;;;;;;;12.38;7.32;;;13.40;99.90;;;;;;4975985;28;20042;-59
2022/02/20 04:15:46;;;;;;;12.82;5.57;;;13.50;99.90;;;;;;4975769;28;20043;-59
2022/02/20 04:18:25;;;;;;;18.13;6.93;;;13.40;99.90;;;;;;4975696;28;20050;-59
2022/02/20 04:21:15;;;;;;;16.10;7.03;;;13.40;99.90;;;;;;4976381;28;20587;-59
2022/02/20 04:23:43;;;;;;;10.40;6.68;;;13.40;99.90;;;;;;4975524;28;20039;-59
2022/02/20 04:26:15;;;;;;;18.27;6.82;;;13.40;99.90;;;;;;4975855;28;20145;-59
2022/02/20 04:28:43;;;;;;;12.52;8.02;;;13.50;99.90;;;;;;4959786;28;20039;-59
2022/02/20 04:31:11;;;;;;;12.93;7.18;;;13.50;99.90;;;;;;4975459;28;20067;-59
2022/02/20 04:33:39;;;;;;;14.88;7.18;;;13.50;99.90;;;;;;4975574;28;20061;-59
2022/02/20 04:36:07;;;;;;;18.45;8.75;;;13.40;99.90;;;;;;4959700;28;20366;-59
2022/02/20 04:38:35;;;;;;;23.77;7.82;;;13.50;99.90;;;;;;4976500;28;20053;-59
2022/02/20 04:41:06;;;;;;;15.43;8.20;;;13.50;99.90;;;;;;4975421;28;20077;-59
2022/02/20 04:43:35;;;;;;;15.27;8.40;;;13.50;99.90;;;;;;4975204;28;20039;-59
2022/02/20 04:46:08;;;;;;;19.55;8.02;;;13.50;99.90;;;;;;4976776;28;20051;-59
2022/02/20 04:48:36;;;;;;;19.70;8.02;;;13.50;99.90;;;;;;4975145;28;20524;-59
2022/02/20 04:51:10;;;;;;;20.88;7.78;;;13.40;99.90;;;;;;4975407;28;20074;-59
2022/02/20 04:53:40;;;;;;;18.95;8.32;;;13.40;99.90;;;;;;4975073;28;20499;-59
2022/02/20 04:56:08;;;;;;;24.55;9.45;;;13.40;99.90;;;;;;4975003;28;20548;-59
2022/02/20 04:58:37;;;;;;;21.20;9.05;;;13.40;99.90;;;;;;4974885;28;20497;-59
2022/02/20 05:01:15;;;;;;;25.42;9.45;;;13.40;99.90;;;;;;4960572;28;20067;-59
2022/02/20 05:03:46;;;;;;;22.00;8.70;;;13.30;99.90;;;;;;4974872;28;20047;-59
2022/02/20 05:06:37;;;;;;;21.60;8.00;;;13.40;99.90;;;;;;4972453;28;20058;-59
2022/02/20 05:09:12;;;;;;;22.80;9.23;;;13.30;99.90;;;;;;4974723;28;20055;-59
2022/02/20 05:11:50;;;;;;;14.20;6.80;;;13.30;99.90;;;;;;4974817;28;20513;-58
2022/02/20 05:14:18;;;;;;;19.45;9.32;;;13.30;99.90;;;;;;4974622;28;20051;-59
2022/02/20 05:16:47;;;;;;;15.75;7.80;;;13.40;99.90;;;;;;4958773;28;20042;-59
2022/02/20 05:19:22;;;;;;;20.00;7.70;;;13.40;99.90;;;;;;4959720;28;20074;-59
2022/02/20 05:21:56;;;;;;;20.38;6.90;;;13.40;99.90;;;;;;4975044;28;20047;-59
2022/02/20 05:24:29;;;;;;;17.33;8.35;;;13.40;99.90;;;;;;4959413;28;20042;-59
2022/02/20 05:26:57;;;;;;;20.98;9.35;;;13.40;99.90;;;;;;4942759;28;20150;-59
2022/02/20 05:29:33;;;;;;;19.05;8.05;;;13.40;99.90;;;;;;4974441;28;20049;-59
2022/02/20 05:32:03;;;;;;;14.13;7.68;;;13.40;99.90;;;;;;4942845;28;20047;-59
2022/02/20 05:34:45;;;;;;;21.33;7.32;;;13.50;99.90;;;;;;4960482;28;20086;-59
2022/02/20 05:37:13;;;;;;;23.35;7.82;;;13.40;99.90;;;;;;4975465;28;20106;-59
2022/02/20 05:39:43;;;;;;;17.13;7.50;;;13.40;99.90;;;;;;4958695;28;20125;-59
2022/02/20 05:42:11;;;;;;;28.73;9.13;;;13.40;99.90;;;;;;4975477;28;20434;-59
2022/02/20 05:44:46;;;;;;;19.48;7.82;;;13.50;99.90;;;;;;4959090;28;20047;-59
2022/02/20 05:47:14;;;;;;;19.13;9.77;;;13.40;99.90;;;;;;4974360;28;20129;-59
2022/02/20 05:49:46;;;;;;;17.58;7.95;;;13.50;99.90;;;;;;4974208;28;20564;-59
2022/02/20 05:52:14;;;;;;;26.20;9.32;;;13.50;99.90;;;;;;4942082;28;20410;-59
2022/02/20 05:54:44;;;;;;;12.57;8.02;;;13.50;99.90;;;;;;4973935;28;20054;-59
2022/02/20 05:57:13;;;;;;;14.98;7.30;;;13.50;99.90;;;;;;4973997;28;20560;-59
2022/02/20 05:59:49;;;;;;;20.55;7.75;;;13.50;99.90;;;;;;4959098;28;20564;-59
2022/02/20 06:02:17;;;;;;;18.52;8.63;;;13.50;99.90;;;;;;4974990;28;20077;-59
2022/02/20 06:04:45;;;;;;;16.08;7.25;;;13.50;99.90;;;;;;4958037;28;20405;-59
2022/02/20 06:07:37;;;;;;;15.70;7.50;;;13.50;99.90;;;;;;4989601;28;20046;-59
2022/02/20 06:10:24;;;;;;;19.98;8.82;;;13.60;99.90;;;;;;4975008;28;20066;-59
2022/02/20 06:13:07;;;;;;;15.95;7.90;;;13.60;99.90;;;;;;4960150;28;20050;-59
2022/02/20 06:15:58;;;;;;;20.30;6.65;;;13.60;99.90;;;;;;4960292;28;20058;-59
2022/02/20 06:18:45;;;;;;;15.18;7.82;;;13.60;99.90;;;;;;4973984;28;20054;-59
2022/02/20 06:21:37;;;;;;;22.08;9.38;;;13.60;99.90;;;;;;4957796;28;20118;-59
2022/02/20 06:24:30;;;;;;;23.60;9.38;;;13.60;99.90;;;;;;4973369;28;20122;-59
2022/02/20 06:27:27;;;;;;;14.07;7.18;;;13.60;99.90;;;;;;4965898;28;20058;-59
2022/02/20 06:30:16;;;;;;;16.20;8.07;;;13.60;99.90;;;;;;4973612;28;20121;-59
2022/02/20 06:32:45;;;;;;;25.27;8.60;;;13.70;99.90;;;;;;4957700;28;20035;-59
2022/02/20 06:35:16;;;;;;;20.05;8.50;;;13.70;99.90;;;;;;4973467;28;20449;-59
2022/02/20 06:37:44;;;;;;;15.00;8.10;;;13.70;99.90;;;;;;4941760;28;20062;-59
2022/02/20 06:40:12;;;;;;;28.23;8.25;;;13.70;99.90;;;;;;4973635;28;20042;-59
2022/02/20 06:42:40;;;;;;;10.45;7.18;;;13.80;99.90;;;;;;4957741;28;20097;-59
2022/02/20 06:45:16;;;;;;;18.95;8.48;;;13.80;99.90;;;;;;4958425;28;20041;-59
2022/02/20 06:48:06;;;;;;;32.72;10.32;;;13.80;99.90;;;;;;4974690;28;20066;-59
2022/02/20 06:50:56;;;;;;;14.13;7.10;;;13.80;99.90;;;;;;4960614;28;20126;-59
2022/02/20 06:53:42;;;;;;;14.77;6.80;;;13.90;99.90;;;;;;4974573;28;20413;-59
2022/02/20 06:56:25;;;;;;;18.88;8.18;;;13.90;99.90;;;;;;4943658;28;20275;-59
2022/02/20 06:58:54;;;;;;;18.58;6.63;;;13.90;99.90;;;;;;4974054;28;20502;-59
2022/02/20 07:01:22;;;;;;;32.42;9.85;;;14.00;99.90;;;;;;4974382;28;20097;-59
2022/02/20 07:03:50;;;;;;;19.08;8.48;;;14.00;99.90;;;;;;4941473;28;20051;-59
2022/02/20 07:06:18;;;;;;;19.48;7.97;;;14.00;99.90;;;;;;4973195;28;20114;-59
2022/02/20 07:08:45;;;;;;;17.60;8.18;;;14.00;99.90;;;;;;4941650;28;20494;-59
2022/02/20 07:11:13;;;;;;;23.38;10.05;;;14.00;99.90;;;;;;4974970;28;20435;-59
2022/02/20 07:13:40;;;;;;;18.75;8.00;;;14.00;99.90;;;;;;4974513;28;20127;-59
2022/02/20 07:16:08;;;;;;;20.45;7.93;;;14.10;99.90;;;;;;4974310;28;20075;-59
2022/02/20 07:18:36;;;;;;;21.15;7.70;;;14.10;99.90;;;;;;4974366;28;20521;-59
2022/02/20 07:21:03;;;;;;;16.38;7.43;;;14.10;99.90;;;;;;4974280;28;20094;-59
2022/02/20 07:23:31;;;;;;;18.55;8.43;;;14.10;99.90;;;;;;4973202;28;20079;-58
2022/02/20 07:25:58;;;;;;;20.50;7.53;;;14.20;99.90;;;;;;4974373;28;20129;-59
2022/02/20 07:28:26;;;;;;;17.27;7.25;;;14.30;99.90;;;;;;4974305;28;20142;-59
2022/02/20 07:30:56;;;;;;;19.45;7.53;;;14.40;99.90;;;;;;4973201;28;20050;-59
2022/02/20 07:33:23;;;;;;;16.20;7.65;;;14.40;99.90;;;;;;4941273;28;20101;-59
2022/02/20 07:35:51;;;;;;;35.10;10.70;;;14.50;99.90;;;;;;4974158;28;20043;-59
2022/02/20 07:38:19;;;;;;;14.13;6.75;;;14.50;99.90;;;;;;4975699;28;20050;-59
2022/02/20 07:40:46;;;;;;;15.10;7.72;;;14.60;99.90;;;;;;4977607;28;20067;-60
2022/02/20 07:43:14;;;;;;;18.02;8.68;;;14.70;99.90;;;;;;4977526;28;20085;-59
2022/02/20 07:45:41;;;;;;;17.63;7.45;;;14.70;99.90;;;;;;4976328;28;20054;-59
2022/02/20 07:48:10;;;;;;;21.88;7.97;;;14.80;99.90;;;;;;4976177;28;20117;-59
2022/02/20 07:50:42;;;;;;;21.40;7.32;;;14.70;99.90;;;;;;4977452;28;20043;-59
2022/02/20 07:53:11;;;;;;;13.18;8.05;;;14.70;99.90;;;;;;4976571;28;20043;-59
2022/02/20 07:55:39;;;;;;;15.07;7.45;;;14.70;99.90;;;;;;4960773;28;20129;-59
2022/02/20 07:58:10;;;;;;;13.70;7.45;;;14.70;99.90;;;;;;4977288;28;20054;-59
2022/02/20 08:00:38;;;;;;;23.45;9.38;;;14.70;99.90;;;;;;4977299;28;20054;-59
2022/02/20 08:03:05;;;;;;;18.05;9.00;;;14.70;99.90;;;;;;4975974;28;20045;-59
2022/02/20 08:05:33;;;;;;;14.35;7.32;;;14.80;99.90;;;;;;4977099;28;20379;-59
2022/02/20 08:08:00;;;;;;;13.07;6.13;;;14.80;99.90;;;;;;4975931;28;20054;-59
2022/02/20 08:10:28;;;;;;;17.45;7.90;;;14.90;99.90;;;;;;4975867;28;20085;-59
2022/02/20 08:12:56;;;;;;;14.02;7.57;;;15.00;99.90;;;;;;4976054;28;20043;-59
2022/02/20 08:15:24;;;;;;;16.58;6.85;;;15.00;99.90;;;;;;4976875;28;20049;-59
2022/02/20 08:17:52;;;;;;;18.13;7.88;;;15.10;99.90;;;;;;4975862;28;20047;-59
2022/02/20 08:20:20;;;;;;;16.52;8.13;;;15.10;99.90;;;;;;4960081;28;20043;-59
2022/02/20 08:22:48;;;;;;;21.25;7.70;;;15.20;99.90;;;;;;4975772;28;20075;-59
2022/02/20 08:25:16;;;;;;;20.05;6.85;;;15.30;99.90;;;;;;4976723;28;20046;-59
2022/02/20 08:27:46;;;;;;;13.68;7.45;;;15.30;99.90;;;;;;4976766;28;20486;-59
2022/02/20 08:30:17;;;;;;;13.13;7.38;;;15.40;99.90;;;;;;4975498;28;20043;-59
2022/02/20 08:32:47;;;;;;;19.67;7.72;;;15.60;99.90;;;;;;4976765;28;20122;-59
2022/02/20 08:35:16;;;;;;;24.27;7.82;;;15.50;99.90;;;;;;4975678;28;20066;-59
2022/02/20 08:37:46;;;;;;;17.25;7.38;;;15.50;99.90;;;;;;4976653;28;20074;-59
2022/02/20 08:40:16;;;;;;;15.88;8.30;;;15.40;99.90;;;;;;4962690;28;20039;-59
2022/02/20 08:42:45;;;;;;;19.58;9.00;;;15.40;99.90;;;;;;4973682;28;20046;-59
2022/02/20 08:45:13;;;;;;;15.82;7.60;;;15.40;99.90;;;;;;4973863;28;20481;-59
2022/02/20 08:47:41;;;;;;;16.35;8.57;;;15.40;99.90;;;;;;4955560;28;20442;-59
2022/02/20 08:50:09;;;;;;;21.92;7.60;;;15.40;99.90;;;;;;4969624;28;20435;-59
2022/02/20 08:52:37;;;;;;;11.05;6.80;;;15.50;99.90;;;;;;4942144;28;20049;-60
2022/02/20 08:55:07;;;;;;;16.60;7.28;;;15.60;99.90;;;;;;4973134;28;20038;-59
2022/02/20 08:57:35;;;;;;;19.40;7.82;;;15.80;99.90;;;;;;4973071;28;20100;-59
2022/02/20 09:00:06;;;;;;;17.83;7.82;;;16.00;99.90;;;;;;4973331;28;20049;-59
2022/02/20 09:02:33;;;;;;;27.52;8.77;;;16.00;99.90;;;;;;4973233;28;20043;-60
2022/02/20 09:05:01;;;;;;;16.52;7.85;;;16.00;99.90;;;;;;4952786;28;20146;-60
2022/02/20 09:07:29;;;;;;;12.82;7.22;;;16.10;99.90;;;;;;4974665;28;20039;-59
2022/02/20 09:09:59;;;;;;;24.90;8.98;;;16.00;99.90;;;;;;4973253;28;20061;-60
2022/02/20 09:12:27;;;;;;;13.57;7.07;;;16.10;99.90;;;;;;4972644;28;20043;-59
2022/02/20 09:14:55;;;;;;;13.23;7.85;;;16.20;99.90;;;;;;4973446;28;20045;-59
2022/02/20 09:17:22;;;;;;;14.88;7.35;;;16.10;99.90;;;;;;4974362;28;20127;-60
2022/02/20 09:19:50;;;;;;;19.23;7.18;;;16.10;99.90;;;;;;4973037;28;20090;-60
2022/02/20 09:22:18;;;;;;;10.07;5.90;;;16.10;99.90;;;;;;4972253;28;20038;-60
2022/02/20 09:24:45;;;;;;;19.85;9.48;;;16.20;99.90;;;;;;4972007;28;20525;-59
2022/02/20 09:27:13;;;;;;;15.05;7.90;;;16.20;99.90;;;;;;4974796;28;20462;-59
2022/02/20 09:29:41;;;;;;;16.83;9.27;;;16.30;99.90;;;;;;4975492;28;20085;-59
2022/02/20 09:32:09;;;;;;;13.50;6.30;;;16.30;99.90;;;;;;4974598;28;20046;-59
2022/02/20 09:34:36;;;;;;;16.92;9.13;;;16.30;99.90;;;;;;4974303;28;20128;-59
2022/02/20 09:37:05;;;;;;;21.67;10.27;;;16.30;99.90;;;;;;4975431;28;20038;-59
2022/02/20 09:39:33;;;;;;;15.27;8.38;;;16.30;99.90;;;;;;4975298;28;20127;-59
2022/02/20 09:42:01;;;;;;;17.23;7.63;;;16.40;99.90;;;;;;4974593;28;20137;-59
2022/02/20 09:44:30;;;;;;;13.75;7.93;;;16.40;99.90;;;;;;4955455;28;20061;-59
2022/02/20 09:46:57;;;;;;;13.32;7.80;;;16.40;99.90;;;;;;4972289;28;20066;-60
2022/02/20 09:49:27;;;;;;;20.20;7.68;;;16.30;99.90;;;;;;4972380;28;20039;-59
2022/02/20 09:51:56;;;;;;;14.38;7.22;;;16.20;99.90;;;;;;4973325;28;20050;-60
2022/02/20 09:54:23;;;;;;;12.68;7.18;;;16.30;99.90;;;;;;4969114;28;20043;-59
2022/02/20 09:56:51;;;;;;;20.67;7.35;;;16.30;99.90;;;;;;4962157;28;20044;-59
2022/02/20 09:59:19;;;;;;;13.65;6.68;;;16.40;99.90;;;;;;4961165;28;20043;-59
2022/02/20 10:02:10;;;;;;;16.02;6.97;;;16.40;99.90;;;;;;4971087;28;20047;-59
2022/02/20 10:04:54;;;;;;;15.50;7.65;;;16.40;99.90;;;;;;4975181;28;20069;-59
2022/02/20 10:07:34;;;;;;;12.98;7.05;;;16.50;99.90;;;;;;4971055;28;20075;-60
2022/02/20 10:10:25;;;;;;;13.93;8.20;;;16.60;99.90;;;;;;4972939;28;20050;-59
2022/02/20 10:13:03;;;;;;;12.15;6.57;;;16.90;99.90;;;;;;4962272;28;20401;-60
2022/02/20 10:15:35;;;;;;;14.05;7.03;;;17.10;99.90;;;;;;4972300;28;20113;-61
2022/02/20 10:18:26;;;;;;;12.55;6.22;;;17.10;99.90;;;;;;4971005;28;20047;-61
2022/02/20 10:21:20;;;;;;;12.13;6.95;;;17.10;99.90;;;;;;4971763;28;20043;-61
2022/02/20 10:24:09;;;;;;;15.73;7.57;;;17.20;99.90;;;;;;4971826;28;20549;-61
2022/02/20 10:27:08;;;;;;;15.13;6.75;;;17.40;99.90;;;;;;4972315;28;20045;-60
2022/02/20 10:29:38;;;;;;;10.13;7.07;;;17.40;99.90;;;;;;4960909;28;20042;-61
2022/02/20 10:32:06;;;;;;;9.95;7.35;;;17.40;99.90;;;;;;4971427;28;20039;-61
2022/02/20 10:34:33;;;;;;;16.42;7.28;;;17.40;99.90;;;;;;4972420;28;20035;-60
2022/02/20 10:37:03;;;;;;;16.65;7.28;;;17.30;99.90;;;;;;4971599;28;20362;-61
2022/02/20 10:39:42;;;;;;;9.65;6.53;;;17.20;99.90;;;;;;4972179;28;20410;-60
2022/02/20 10:42:15;;;;;;;12.35;7.38;;;17.20;99.90;;;;;;4971654;28;20102;-59
2022/02/20 10:44:55;;;;;;;18.95;8.68;;;17.30;99.90;;;;;;4972127;28;20118;-59
2022/02/20 10:47:24;;;;;;;11.85;6.75;;;17.60;99.90;;;;;;4971476;28;20098;-59
2022/02/20 10:49:53;;;;;;;13.82;7.25;;;17.70;99.90;;;;;;4954453;28;20050;-60
2022/02/20 10:52:23;;;;;;;10.13;6.10;;;17.70;99.90;;;;;;4970751;28;20050;-58
2022/02/20 10:55:04;;;;;;;14.90;6.18;;;17.60;99.90;;;;;;4972965;28;20521;-58
2022/02/20 10:57:49;;;;;;;13.52;6.22;;;17.60;99.90;;;;;;4962477;28;20042;-58
2022/02/20 11:00:20;;;;;;;14.90;6.35;;;17.60;99.90;;;;;;4917184;28;20043;-58
2022/02/20 11:03:05;;;;;;;11.27;5.18;;;17.90;99.90;;;;;;4971595;28;20378;-59
2022/02/20 11:05:35;;;;;;;12.43;4.68;;;18.00;99.90;;;;;;4970612;28;20098;-59
2022/02/20 11:08:06;;;;;;;11.07;5.45;;;18.00;99.90;;;;;;4972950;28;20039;-59
2022/02/20 11:10:37;;;;;;;12.50;6.60;;;18.00;99.90;;;;;;4971380;28;20142;-59
2022/02/20 11:13:09;;;;;;;14.15;6.25;;;18.20;99.90;;;;;;4974995;28;20047;-59
2022/02/20 11:15:38;;;;;;;9.82;5.32;;;18.30;99.90;;;;;;4975272;28;20048;-59
2022/02/20 11:18:08;;;;;;;11.88;5.38;;;18.50;99.90;;;;;;4976805;28;20054;-59
2022/02/20 11:20:40;;;;;;;10.07;4.93;;;18.60;99.90;;;;;;4933370;28;20046;-59
2022/02/20 11:23:09;;;;;;;7.32;4.50;;;18.40;99.90;;;;;;4953473;28;20405;-60
2022/02/20 11:25:41;;;;;;;14.27;5.18;;;18.40;99.90;;;;;;4974584;28;20082;-59
2022/02/20 11:28:09;;;;;;;11.68;5.47;;;18.40;99.90;;;;;;4975427;28;20141;-59
2022/02/20 11:30:37;;;;;;;11.63;7.32;;;18.60;99.90;;;;;;4971878;28;20044;-59
2022/02/20 11:33:07;;;;;;;10.23;4.90;;;18.70;99.90;;;;;;4974961;28;20494;-60
2022/02/20 11:35:41;;;;;;;12.13;4.95;;;18.50;99.90;;;;;;4974174;28;20043;-59
2022/02/20 11:38:15;;;;;;;12.20;6.78;;;18.10;99.90;;;;;;4977025;28;20049;-59
2022/02/20 11:41:11;;;;;;;16.15;6.70;;;17.90;99.90;;;;;;4976464;28;20062;-59
2022/02/20 11:43:47;;;;;;;14.33;6.23;;;17.70;99.90;;;;;;4976483;28;20050;-58
2022/02/20 11:46:18;;;;;;;20.30;7.00;;;18.00;99.90;;;;;;4977543;28;20039;-59
2022/02/20 11:49:04;;;;;;;15.82;5.68;;;18.20;99.90;;;;;;4976398;28;20070;-59
2022/02/20 11:51:33;;;;;;;11.75;5.47;;;18.30;99.90;;;;;;4977236;28;20038;-59
2022/02/20 11:54:17;;;;;;;14.65;7.60;;;18.40;99.90;;;;;;4976362;28;20494;-59
2022/02/20 11:57:05;;;;;;;15.38;6.20;;;18.40;99.90;;;;;;4977522;28;20054;-58
2022/02/20 11:59:33;;;;;;;14.13;6.65;;;18.30;99.90;;;;;;4960169;28;20053;-59
2022/02/20 12:02:08;;;;;;;12.32;6.80;;;18.20;99.90;;;;;;4977532;28;20043;-59
2022/02/20 12:04:51;;;;;;;9.82;6.35;;;17.90;99.90;;;;;;4976165;28;20082;-59
2022/02/20 12:07:38;;;;;;;16.27;8.77;;;18.00;99.90;;;;;;4975932;28;20559;-59
2022/02/20 12:10:18;;;;;;;14.77;7.65;;;18.10;99.90;;;;;;4975737;28;20055;-59
2022/02/20 12:12:48;;;;;;;11.77;4.47;;;18.30;99.90;;;;;;4975883;28;20047;-58
2022/02/20 12:15:38;;;;;;;11.13;4.65;;;18.30;99.90;;;;;;4975659;28;20054;-58
2022/02/20 12:18:11;;;;;;;10.70;5.28;;;18.20;99.90;;;;;;4976833;28;20050;-58
2022/02/20 12:20:56;;;;;;;12.60;5.07;;;18.10;99.90;;;;;;4976917;28;20047;-58
2022/02/20 12:23:57;;;;;;;12.70;5.32;;;18.10;99.90;;;;;;4958828;28;20367;-58
2022/02/20 12:26:44;;;;;;;12.20;5.35;;;17.90;99.90;;;;;;4975453;28;20517;-59
2022/02/20 12:29:13;;;;;;;;;;;18.20;99.90;;;;;;4977057;28;20367;-58
2022/02/20 12:32:02;;;;;;;6.97;4.45;;;18.40;99.90;;;;;;4976792;28;19929;-59
2022/02/20 12:34:52;;;;;;;11.35;5.03;;;18.50;99.90;;;;;;4976676;28;20516;-59
2022/02/20 12:37:22;;;;;;;9.30;4.47;;;18.80;99.90;;;;;;4976397;28;20053;-58
2022/02/20 12:40:01;;;;;;;12.63;5.05;;;18.80;99.90;;;;;;4975415;28;20046;-58
2022/02/20 12:42:30;;;;;;;15.07;4.43;;;18.70;99.90;;;;;;4975376;28;20115;-59
2022/02/20 12:45:07;;;;;;;9.88;5.22;;;18.50;99.90;;;;;;4976426;28;20039;-58
2022/02/20 12:47:37;;;;;;;11.38;6.78;;;18.40;99.90;;;;;;4975552;28;20054;-59
2022/02/20 12:50:07;;;;;;;11.88;6.45;;;18.20;99.90;;;;;;4975055;28;20502;-59
2022/02/20 12:52:36;;;;;;;12.05;6.10;;;18.30;99.90;;;;;;4976325;28;20067;-59
2022/02/20 12:55:07;;;;;;;12.23;5.90;;;18.30;99.90;;;;;;4976450;28;20046;-58
2022/02/20 12:57:38;;;;;;;14.70;4.95;;;18.40;99.90;;;;;;4975353;28;20187;-58
2022/02/20 13:00:27;;;;;;;11.32;5.18;;;18.30;99.90;;;;;;4975048;28;20414;-58
2022/02/20 13:02:58;;;;;;;12.15;7.40;;;18.30;99.90;;;;;;4959280;28;20137;-58
2022/02/20 13:05:34;;;;;;;15.63;6.75;;;18.20;99.90;;;;;;4976007;28;20046;-59